Aviation Digital Data Service (ADDS)

Output produced by METARs form (0347 UTC 18 October 2017)
found at http://www.aviationweather.gov/adds/metars/
 
KMDT 180256Z 00000KT 10SM CLR 12/04 A3030 RMK AO2 SLP263 T01220039 53010
KMDT 180156Z VRB05KT 10SM CLR 12/04 A3029 RMK AO2 SLP258 T01220044
KMDT 180056Z 11004KT 10SM CLR 11/05 A3028 RMK AO2 SLP256 T01060050
KMDT 172356Z 00000KT 10SM CLR 11/06 A3027 RMK AO2 SLP254 T01110056 10167 20111 53003
KMDT 172256Z 21005KT 10SM CLR 12/07 A3026 RMK AO2 SLP250 T01220067
KMDT 172156Z 20003KT 10SM CLR 14/07 A3025 RMK AO2 SLP246 T01440067
KMDT 172056Z 00000KT 10SM CLR 16/03 A3026 RMK AO2 SLP249 T01610033 56013
KMDT 171956Z 00000KT 10SM CLR 17/M01 A3027 RMK AO2 SLP252 T01671006
KMDT 171856Z 32005KT 10SM CLR 16/00 A3028 RMK AO2 SLP256 T01560000
KMDT 171756Z 29004KT 10SM CLR 15/01 A3030 RMK AO2 SLP262 T01500006 10150 20050 58022
KMDT 171656Z 28007KT 10SM CLR 14/01 A3033 RMK AO2 SLP274 T01390006
KMDT 171556Z 19003KT 10SM CLR 13/02 A3036 RMK AO2 SLP281 T01280017
KMDT 171456Z 28004KT 10SM CLR 11/02 A3037 RMK AO2 SLP284 T01110017 50006
KMDT 171356Z 00000KT 10SM CLR 10/03 A3038 RMK AO2 SLP288 T01000028
KMDT 171256Z 00000KT 10SM CLR 08/04 A3037 RMK AO2 SLP287 T00830039
KMDT 171156Z 00000KT 10SM CLR 05/02 A3035 RMK AO2 SLP280 T00500022 10072 20039 51015
KMDT 171056Z 00000KT 10SM CLR 04/03 A3034 RMK AO2 SLP276 T00440028 $
KMDT 170956Z 02003KT 10SM CLR 05/02 A3033 RMK AO2 SLP271 T00500017 $
KMDT 170856Z 36004KT 10SM CLR 05/02 A3030 RMK AO2 SLP263 T00500017 53012 $
KMDT 170756Z 36004KT 10SM CLR 05/02 A3028 RMK AO2 SLP256 T00500017 $
KMDT 170656Z 00000KT 10SM CLR 07/01 A3028 RMK AO2 SLP255 T00670011 $
KMDT 170556Z 33005KT 10SM CLR 07/02 A3027 RMK AO2 SLP251 T00720017 10122 20061 51008 $
KMDT 170456Z 00000KT 10SM CLR 08/01 A3027 RMK AO2 SLP251 T00780006 401780078 $
KMDT 170356Z 35005KT 10SM CLR 09/00 A3026 RMK AO2 SLP248 T00940000 $
KMDT 170256Z 34005KT 10SM CLR 10/01 A3024 RMK AO2 SLP243 T01000006 53025 $
KMDT 170156Z 33008KT 10SM CLR 12/M01 A3022 RMK AO2 SLP235 T01171006 $
KMDT 170056Z 33008KT 10SM CLR 12/00 A3019 RMK AO2 SLP224 T01220000 $
KMDT 162356Z 31005KT 10SM CLR 12/02 A3017 RMK AO2 SLP218 T01170017 10172 20111 53022 $
KMDT 162256Z 32007KT 10SM FEW070 14/00 A3014 RMK AO2 SLP207 T01390000 $
KMDT 162156Z 31014KT 10SM FEW070 16/01 A3012 RMK AO2 SLP198 T01560006 $
KMDT 162056Z 32013KT 10SM FEW055 17/01 A3010 RMK AO2 SLP194 T01670006 53005 $
KMDT 161956Z 33009KT 10SM FEW055 17/02 A3009 RMK AO2 SLP190 T01720017 $
KMDT 161856Z 35015G20KT 10SM FEW055 FEW250 17/02 A3009 RMK AO2 SLP188 T01720022 $
KMDT 161756Z 34011G19KT 10SM FEW042 SCT250 16/03 A3009 RMK AO2 SLP189 T01610033 10161 20128 58002 $
KMDT 161656Z 34017G20KT 10SM SCT042 BKN250 14/04 A3010 RMK AO2 SLP194 T01440039 $
KMDT 161556Z 32013G17KT 10SM BKN041 BKN250 14/05 A3009 RMK AO2 SLP190 T01390050 $